Time;durP1;ratioP1;P1;durP2;ratioP2;P2;SDS_P1;SDS_P2;PMS_P1;PMS_P2;Temp;Humidity;BMP_temperature;BMP_pressure;BME280_temperature;BME280_humidity;BME280_pressure;Samples;Min_cycle;Max_cycle;Signal;HPM_P1;HPM_P2
2023/01/18 00:00:49;;;;;;;3.10;2.90;;;22.30;63.50;;;;;;5033214;28;20483;-34
2023/01/18 00:03:16;;;;;;;3.23;2.93;;;22.30;63.50;;;;;;5036206;28;20460;-34
2023/01/18 00:05:44;;;;;;;3.50;3.20;;;22.40;63.70;;;;;;5038040;28;21478;-34
2023/01/18 00:08:13;;;;;;;3.40;3.10;;;22.30;63.50;;;;;;5031621;28;20498;-34
2023/01/18 00:10:40;;;;;;;4.50;3.30;;;22.40;63.50;;;;;;5035251;28;20817;-34
2023/01/18 00:13:07;;;;;;;3.87;3.43;;;22.40;63.50;;;;;;5033257;28;20842;-34
2023/01/18 00:15:34;;;;;;;6.27;3.67;;;22.30;63.50;;;;;;5035786;28;20472;-34
2023/01/18 00:18:00;;;;;;;5.87;3.00;;;22.30;63.60;;;;;;5035366;28;20532;-34
2023/01/18 00:20:29;;;;;;;3.17;2.97;;;22.30;63.50;;;;;;5036042;28;20460;-34
2023/01/18 00:22:59;;;;;;;3.20;2.87;;;22.30;63.40;;;;;;5034038;28;20799;-34
2023/01/18 00:25:27;;;;;;;5.13;3.50;;;22.30;63.20;;;;;;5035177;28;20530;-33
2023/01/18 00:27:54;;;;;;;3.40;3.10;;;22.40;63.30;;;;;;5035857;28;20465;-34
2023/01/18 00:30:23;;;;;;;4.37;3.30;;;22.40;63.30;;;;;;5035090;28;20200;-33
2023/01/18 00:32:53;;;;;;;2.70;2.50;;;22.40;63.30;;;;;;5034670;28;20510;-34
2023/01/18 00:35:21;;;;;;;3.50;3.20;;;22.40;63.30;;;;;;5034577;28;20556;-34
2023/01/18 00:37:48;;;;;;;3.53;3.23;;;22.40;63.30;;;;;;5035108;28;20484;-33
2023/01/18 00:40:16;;;;;;;3.50;2.60;;;22.40;63.40;;;;;;5033418;28;20681;-34
2023/01/18 00:45:28;;;;;;;2.92;2.72;;;22.40;63.40;;;;;;5030640;28;20503;-36
2023/01/18 00:50:54;;;;;;;4.50;3.17;;;22.30;62.90;;;;;;5065316;27;21012;-34
2023/01/18 00:53:21;;;;;;;4.07;3.33;;;22.30;64.00;;;;;;5058899;28;20205;-34
2023/01/18 00:55:48;;;;;;;3.60;3.30;;;22.30;63.70;;;;;;5059828;28;20471;-35
2023/01/18 00:58:14;;;;;;;3.90;3.47;;;22.40;63.80;;;;;;5062279;28;20479;-35
2023/01/18 01:00:41;;;;;;;3.40;2.87;;;22.40;63.70;;;;;;5061028;28;20542;-34
2023/01/18 01:03:08;;;;;;;3.90;3.40;;;22.40;63.70;;;;;;5062940;28;20467;-34
2023/01/18 01:08:23;;;;;;;3.17;2.80;;;22.40;63.70;;;;;;5059827;28;20525;-35
2023/01/18 01:10:52;;;;;;;4.07;3.00;;;22.40;64.50;;;;;;5062183;28;20832;-35
2023/01/18 01:27:05;;;;;;;3.42;3.13;;;22.40;63.70;;;;;;5061182;28;20965;-34
2023/01/18 01:29:31;;;;;;;3.10;2.80;;;22.40;63.70;;;;;;5062647;28;20210;-34
2023/01/18 01:31:58;;;;;;;2.95;2.75;;;22.40;63.70;;;;;;5059579;28;20934;-35
2023/01/18 01:34:25;;;;;;;3.57;3.23;;;22.40;63.70;;;;;;5058727;28;20669;-34
2023/01/18 01:36:52;;;;;;;3.78;3.08;;;22.40;63.60;;;;;;5061531;28;20460;-35
2023/01/18 01:39:20;;;;;;;3.37;3.00;;;22.50;63.70;;;;;;5059973;28;20202;-35
2023/01/18 01:41:47;;;;;;;3.87;2.90;;;22.40;63.50;;;;;;5059760;28;20509;-35
2023/01/18 01:44:43;;;;;;;3.83;3.53;;;22.40;63.70;;;;;;5058703;28;20545;-35
2023/01/18 01:47:17;;;;;;;2.90;2.60;;;22.40;63.50;;;;;;5059725;28;20210;-35
2023/01/18 01:49:46;;;;;;;3.00;2.80;;;22.40;63.50;;;;;;5062475;28;20476;-35
2023/01/18 01:52:16;;;;;;;3.85;3.47;;;22.50;63.50;;;;;;5055088;28;20460;-36
2023/01/18 01:54:49;;;;;;;2.55;2.35;;;22.40;63.40;;;;;;5056019;28;20199;-33
2023/01/18 01:57:21;;;;;;;3.20;2.90;;;22.40;63.50;;;;;;5060559;28;20198;-35
2023/01/18 01:59:55;;;;;;;4.18;3.22;;;22.40;63.50;;;;;;5062482;28;20318;-35
2023/01/18 02:02:22;;;;;;;3.27;2.97;;;22.40;63.50;;;;;;5045293;28;20226;-35
2023/01/18 02:04:53;;;;;;;2.53;2.33;;;22.40;63.50;;;;;;5047367;28;20562;-35
2023/01/18 02:07:19;;;;;;;4.20;3.17;;;22.50;63.60;;;;;;5048610;28;20195;-35
2023/01/18 02:09:48;;;;;;;3.93;3.30;;;22.40;63.50;;;;;;5047208;28;20587;-35
2023/01/18 02:12:15;;;;;;;3.03;2.83;;;22.40;63.40;;;;;;5044296;28;20462;-35
2023/01/18 02:14:42;;;;;;;3.10;2.77;;;22.40;63.40;;;;;;5048217;28;20461;-35
2023/01/18 02:17:22;;;;;;;3.30;3.00;;;22.40;63.50;;;;;;5045893;28;20864;-35
2023/01/18 02:20:25;;;;;;;3.38;3.15;;;22.40;63.50;;;;;;5047475;28;20473;-35
2023/01/18 02:23:12;;;;;;;4.63;2.55;;;22.40;63.40;;;;;;5047049;28;20198;-35
2023/01/18 02:26:03;;;;;;;2.80;2.60;;;22.40;64.40;;;;;;5041807;28;20264;-35
2023/01/18 02:28:33;;;;;;;2.90;2.70;;;22.40;63.50;;;;;;5048666;28;20518;-34
2023/01/18 02:31:09;;;;;;;2.77;2.57;;;22.40;63.50;;;;;;5045462;28;20482;-35
2023/01/18 02:33:43;;;;;;;3.67;3.17;;;22.40;63.40;;;;;;5047987;28;20872;-34
2023/01/18 02:36:16;;;;;;;3.67;3.30;;;22.40;63.30;;;;;;5046216;28;20473;-34
2023/01/18 02:38:45;;;;;;;3.03;2.83;;;22.40;63.40;;;;;;5045794;28;20207;-34
2023/01/18 02:41:17;;;;;;;3.13;2.80;;;22.40;63.40;;;;;;5043979;28;20471;-35
2023/01/18 02:46:37;;;;;;;2.83;2.63;;;22.40;63.40;;;;;;5043667;28;20467;-34
2023/01/18 02:49:07;;;;;;;3.60;3.30;;;22.40;63.40;;;;;;5047241;28;20469;-34
2023/01/18 02:51:34;;;;;;;2.97;2.37;;;22.40;63.40;;;;;;5046070;28;20260;-34
2023/01/18 02:54:02;;;;;;;3.65;3.35;;;22.40;63.40;;;;;;5044483;28;20462;-35
2023/01/18 02:56:34;;;;;;;2.80;2.60;;;22.40;63.40;;;;;;5046196;28;20248;-34
2023/01/18 02:59:09;;;;;;;4.25;3.90;;;22.40;63.50;;;;;;5048468;28;20199;-34
2023/01/18 03:01:40;;;;;;;3.55;3.25;;;22.40;63.50;;;;;;5045888;28;20195;-34
2023/01/18 03:04:13;;;;;;;3.10;2.90;;;22.40;63.30;;;;;;5048836;28;20207;-35
2023/01/18 03:06:42;;;;;;;2.63;2.43;;;22.40;63.30;;;;;;5044469;28;20199;-34
2023/01/18 03:09:09;;;;;;;2.72;2.35;;;22.40;63.20;;;;;;5047141;28;20464;-35
2023/01/18 03:11:41;;;;;;;3.00;2.80;;;22.40;63.30;;;;;;5042011;28;20257;-35
2023/01/18 03:14:18;;;;;;;2.95;2.70;;;22.40;63.30;;;;;;5047190;28;20481;-34
2023/01/18 03:16:58;;;;;;;2.88;2.67;;;22.40;63.20;;;;;;5045609;28;20206;-34
2023/01/18 03:23:36;;;;;;;2.87;2.67;;;22.40;63.20;;;;;;5046217;28;20440;-34
2023/01/18 03:25:08;;;;;;;3.57;3.27;;;22.40;63.30;;;;;;5044579;28;20453;-36
2023/01/18 03:35:55;;;;;;;2.88;2.67;;;22.40;63.20;;;;;;5046018;28;20547;-33
2023/01/18 03:38:22;;;;;;;3.20;2.90;;;22.40;63.20;;;;;;5044682;28;20187;-34
2023/01/18 03:40:49;;;;;;;2.90;2.70;;;22.40;63.10;;;;;;5044749;28;20199;-33
2023/01/18 03:43:19;;;;;;;2.97;2.67;;;22.40;63.10;;;;;;5043624;28;20255;-35
2023/01/18 03:45:49;;;;;;;3.37;3.07;;;22.40;63.20;;;;;;5044010;28;20940;-36
2023/01/18 03:48:16;;;;;;;3.17;2.90;;;22.40;63.00;;;;;;5044896;28;20836;-34
2023/01/18 03:50:49;;;;;;;2.70;2.50;;;22.40;63.00;;;;;;5043205;28;20530;-34
2023/01/18 03:53:23;;;;;;;3.08;2.78;;;22.40;63.10;;;;;;5044712;28;20856;-36
2023/01/18 03:55:54;;;;;;;3.07;2.87;;;22.40;63.10;;;;;;5044902;28;21660;-34
2023/01/18 03:58:25;;;;;;;2.53;2.33;;;22.40;63.10;;;;;;5046422;28;20932;-34
2023/01/18 04:00:54;;;;;;;3.10;2.73;;;22.40;63.10;;;;;;5042931;28;21165;-34
2023/01/18 04:03:21;;;;;;;4.13;2.93;;;22.40;63.10;;;;;;5046274;28;20476;-34
2023/01/18 04:05:48;;;;;;;2.30;2.10;;;22.40;63.00;;;;;;5044775;28;20465;-34
2023/01/18 04:08:15;;;;;;;3.07;2.87;;;22.40;63.10;;;;;;5045830;28;20465;-34
2023/01/18 04:10:41;;;;;;;2.80;2.60;;;22.40;63.10;;;;;;5044090;28;20477;-34
2023/01/18 04:13:08;;;;;;;2.70;2.50;;;22.40;63.10;;;;;;5043846;28;20470;-34
2023/01/18 04:15:35;;;;;;;2.90;2.40;;;22.40;63.10;;;;;;5044985;28;20476;-34
2023/01/18 04:18:03;;;;;;;5.32;3.70;;;22.40;63.10;;;;;;5044334;28;20198;-35
2023/01/18 04:20:30;;;;;;;2.50;2.30;;;22.40;62.90;;;;;;5044968;28;20726;-35
2023/01/18 04:22:56;;;;;;;2.90;2.70;;;22.40;63.00;;;;;;5044396;28;22836;-34
2023/01/18 04:25:23;;;;;;;2.60;2.40;;;22.40;63.00;;;;;;5043942;28;20243;-34
2023/01/18 04:27:50;;;;;;;2.60;2.40;;;22.40;63.80;;;;;;5042981;28;20192;-35
2023/01/18 04:30:17;;;;;;;3.47;3.17;;;22.40;63.00;;;;;;5045623;28;20586;-34
2023/01/18 04:32:45;;;;;;;3.30;3.00;;;22.40;63.00;;;;;;5042511;28;20466;-34
2023/01/18 04:35:13;;;;;;;2.77;2.57;;;22.40;63.00;;;;;;5044138;28;20203;-34
2023/01/18 04:37:40;;;;;;;2.90;2.17;;;22.40;62.90;;;;;;5045359;28;20468;-36
2023/01/18 04:40:08;;;;;;;2.45;2.30;;;22.40;62.90;;;;;;5044316;28;20514;-35
2023/01/18 04:42:34;;;;;;;2.87;2.67;;;22.40;63.00;;;;;;5043694;28;20242;-35
2023/01/18 04:45:01;;;;;;;3.28;3.08;;;22.40;62.90;;;;;;5046656;28;20534;-35
2023/01/18 04:47:28;;;;;;;2.67;2.47;;;22.40;62.90;;;;;;5044438;28;20199;-35
2023/01/18 04:49:56;;;;;;;3.20;2.90;;;22.40;62.90;;;;;;5038523;28;20333;-35
2023/01/18 04:52:25;;;;;;;3.20;2.90;;;22.40;62.80;;;;;;5041992;28;20909;-35
2023/01/18 04:54:52;;;;;;;2.60;2.40;;;22.40;62.80;;;;;;5045545;28;20952;-35
2023/01/18 04:57:18;;;;;;;2.60;2.40;;;22.40;62.80;;;;;;5046249;28;20453;-36
2023/01/18 04:59:45;;;;;;;2.63;1.98;;;22.40;62.90;;;;;;5044396;28;20530;-33
2023/01/18 05:02:13;;;;;;;2.50;2.30;;;22.40;63.60;;;;;;5054576;22;20310;-78
2023/01/18 05:04:40;;;;;;;2.70;2.50;;;22.40;62.80;;;;;;5021397;28;20673;-78
2023/01/18 05:07:07;;;;;;;2.60;2.40;;;22.40;62.80;;;;;;5020992;28;20589;-77
2023/01/18 05:09:36;;;;;;;3.03;2.50;;;22.40;62.80;;;;;;5022372;28;20450;-78
2023/01/18 05:12:02;;;;;;;3.00;2.10;;;22.40;62.80;;;;;;5020459;28;20467;-78
2023/01/18 05:14:29;;;;;;;2.60;2.40;;;22.40;62.70;;;;;;5020030;28;20485;-76
2023/01/18 05:16:56;;;;;;;2.70;2.50;;;22.40;62.70;;;;;;5021819;28;20212;-78
2023/01/18 05:19:23;;;;;;;3.27;2.80;;;22.40;62.80;;;;;;5020265;28;20200;-77
2023/01/18 05:21:49;;;;;;;3.30;3.00;;;22.40;62.80;;;;;;5020895;28;20466;-75
2023/01/18 05:24:16;;;;;;;3.10;2.80;;;22.40;62.80;;;;;;5018224;28;20204;-77
2023/01/18 05:26:44;;;;;;;2.93;2.63;;;22.40;62.80;;;;;;5020193;28;20493;-77
2023/01/18 05:29:11;;;;;;;2.70;2.20;;;22.40;62.70;;;;;;5022040;28;20552;-77
2023/01/18 05:31:38;;;;;;;2.88;2.67;;;22.40;62.70;;;;;;5018457;28;20999;-77
2023/01/18 05:34:04;;;;;;;2.92;2.72;;;22.40;62.70;;;;;;5020388;28;20235;-76
2023/01/18 05:36:31;;;;;;;3.22;2.60;;;22.40;62.70;;;;;;5024307;28;20204;-76
2023/01/18 05:38:58;;;;;;;3.60;3.00;;;22.40;62.70;;;;;;5024304;28;20636;-76
2023/01/18 05:41:25;;;;;;;3.42;3.13;;;22.40;62.60;;;;;;5023762;28;20210;-76
2023/01/18 05:43:53;;;;;;;3.20;2.90;;;22.40;62.60;;;;;;5023631;28;20757;-77
2023/01/18 05:46:20;;;;;;;2.72;2.53;;;22.40;62.60;;;;;;5024468;28;20214;-76
2023/01/18 05:48:46;;;;;;;2.95;2.65;;;22.40;62.70;;;;;;5025091;28;20230;-76
2023/01/18 05:51:13;;;;;;;3.00;2.80;;;22.30;62.60;;;;;;5023664;28;20284;-77
2023/01/18 05:53:40;;;;;;;3.20;2.90;;;22.30;62.60;;;;;;5024930;28;20200;-78
2023/01/18 05:56:08;;;;;;;2.78;2.45;;;22.30;62.50;;;;;;5023890;28;20266;-76
2023/01/18 05:58:37;;;;;;;2.88;2.67;;;22.30;62.60;;;;;;5025359;28;20208;-77
2023/01/18 06:01:06;;;;;;;2.72;2.53;;;22.40;62.60;;;;;;5007896;28;20253;-77
2023/01/18 06:03:33;;;;;;;3.15;2.85;;;22.40;62.70;;;;;;5006872;28;20207;-79
2023/01/18 06:06:00;;;;;;;2.30;2.10;;;22.40;62.70;;;;;;5007125;28;20212;-77
2023/01/18 06:08:28;;;;;;;1.83;1.63;;;22.30;62.70;;;;;;5008621;28;21065;-78
2023/01/18 06:10:55;;;;;;;2.80;2.38;;;22.30;62.90;;;;;;5006534;28;20475;-77
2023/01/18 06:13:22;;;;;;;2.57;2.37;;;22.20;63.00;;;;;;5008276;28;20220;-77
2023/01/18 06:15:49;;;;;;;3.20;2.90;;;22.10;63.00;;;;;;5006233;28;21068;-78
2023/01/18 06:18:17;;;;;;;2.05;1.90;;;22.00;63.00;;;;;;5007486;28;20666;-76
2023/01/18 06:20:44;;;;;;;2.88;2.60;;;21.90;63.20;;;;;;5007442;28;20203;-78
2023/01/18 06:23:10;;;;;;;2.80;2.60;;;21.80;63.40;;;;;;5007397;28;20181;-78
2023/01/18 06:25:37;;;;;;;2.70;2.50;;;21.70;63.70;;;;;;5006187;28;20297;-75
2023/01/18 06:28:05;;;;;;;3.08;2.30;;;21.70;63.80;;;;;;5006923;28;20204;-76
2023/01/18 06:30:32;;;;;;;3.22;2.90;;;21.60;63.80;;;;;;5005208;28;20221;-77
2023/01/18 06:33:03;;;;;;;2.42;2.22;;;21.60;63.90;;;;;;5005620;28;20219;-77
2023/01/18 06:35:31;;;;;;;3.40;2.35;;;21.80;63.90;;;;;;5007451;28;20223;-78
2023/01/18 06:37:58;;;;;;;2.40;2.20;;;21.90;63.50;;;;;;5008929;28;20551;-79
2023/01/18 06:40:25;;;;;;;2.67;2.47;;;22.10;63.10;;;;;;5007090;28;20205;-78
2023/01/18 06:42:52;;;;;;;2.90;2.22;;;22.20;62.60;;;;;;5006191;28;20209;-79
2023/01/18 06:45:20;;;;;;;3.90;2.83;;;22.40;62.20;;;;;;5006959;28;20206;-79
2023/01/18 06:47:48;;;;;;;3.22;3.03;;;22.50;61.80;;;;;;5006321;28;20466;-79
2023/01/18 06:50:15;;;;;;;2.53;2.33;;;22.70;61.70;;;;;;5006055;28;21524;-80
2023/01/18 06:52:44;;;;;;;2.75;2.55;;;22.70;61.60;;;;;;5005342;28;20203;-80
2023/01/18 06:55:12;;;;;;;2.20;2.10;;;22.70;61.50;;;;;;5008432;28;20224;-79
2023/01/18 06:57:39;;;;;;;3.20;2.23;;;22.70;61.50;;;;;;5006208;28;20219;-76
2023/01/18 07:00:07;;;;;;;2.50;2.20;;;22.80;61.50;;;;;;5005762;28;21293;-78
2023/01/18 07:02:35;;;;;;;2.47;2.28;;;22.70;61.40;;;;;;5006172;28;20470;-80
2023/01/18 07:05:03;;;;;;;2.60;2.40;;;22.70;61.50;;;;;;5009302;28;20216;-79
2023/01/18 07:07:32;;;;;;;2.70;2.50;;;22.70;61.60;;;;;;5007817;28;20463;-79
2023/01/18 07:10:00;;;;;;;3.00;2.80;;;22.60;61.60;;;;;;5005346;28;20457;-78
2023/01/18 07:12:27;;;;;;;2.97;2.77;;;22.60;61.60;;;;;;5004758;28;20483;-79
2023/01/18 07:14:54;;;;;;;2.70;2.50;;;22.60;61.80;;;;;;5007478;28;20486;-79
2023/01/18 07:17:21;;;;;;;2.60;2.00;;;22.50;61.90;;;;;;5002190;28;20471;-78
2023/01/18 07:19:48;;;;;;;2.30;2.10;;;22.50;61.90;;;;;;5005384;28;20950;-78
2023/01/18 07:22:14;;;;;;;2.00;1.83;;;22.40;62.10;;;;;;5002629;28;20473;-78
2023/01/18 07:24:41;;;;;;;2.20;2.00;;;22.40;62.20;;;;;;5007330;28;20471;-78
2023/01/18 07:27:09;;;;;;;2.57;2.37;;;22.40;62.30;;;;;;5004850;28;20466;-78
2023/01/18 07:29:36;;;;;;;2.33;2.15;;;22.30;62.10;;;;;;5002286;28;20505;-78
2023/01/18 07:32:03;;;;;;;2.47;2.28;;;22.30;62.40;;;;;;5002364;28;20220;-78
2023/01/18 07:34:30;;;;;;;2.45;1.90;;;22.20;62.40;;;;;;5006879;28;20638;-78
2023/01/18 07:36:57;;;;;;;2.53;2.33;;;22.20;62.50;;;;;;5006639;28;20267;-76
2023/01/18 07:39:24;;;;;;;2.30;2.10;;;22.20;62.60;;;;;;5005731;28;20203;-77
2023/01/18 07:41:51;;;;;;;2.77;2.57;;;22.20;62.50;;;;;;5004562;28;20226;-76
2023/01/18 07:44:19;;;;;;;2.17;2.08;;;22.20;62.60;;;;;;5006339;28;20985;-76
2023/01/18 07:46:46;;;;;;;2.60;2.35;;;22.20;62.50;;;;;;5001240;28;20204;-78
2023/01/18 07:49:12;;;;;;;2.60;2.40;;;22.20;62.60;;;;;;5005452;28;20670;-76
2023/01/18 07:51:40;;;;;;;2.80;2.53;;;22.20;62.70;;;;;;5005487;28;20222;-76
2023/01/18 07:54:07;;;;;;;2.03;1.83;;;22.20;62.50;;;;;;5004138;28;20487;-76
2023/01/18 07:56:35;;;;;;;2.45;2.25;;;22.20;62.40;;;;;;5004876;28;20602;-77
2023/01/18 07:59:01;;;;;;;2.25;2.05;;;22.20;62.30;;;;;;5005284;28;20311;-76
2023/01/18 08:01:29;;;;;;;2.88;1.92;;;22.30;62.40;;;;;;5004484;28;20204;-77
2023/01/18 08:03:56;;;;;;;2.10;1.90;;;22.30;62.10;;;;;;5002586;28;20203;-75
2023/01/18 08:06:24;;;;;;;2.25;2.05;;;22.30;62.10;;;;;;5007977;28;20455;-77
2023/01/18 08:08:52;;;;;;;2.70;2.50;;;22.40;62.10;;;;;;5006078;28;20200;-77
2023/01/18 08:11:19;;;;;;;2.20;2.03;;;22.40;62.00;;;;;;5006240;28;20211;-76
2023/01/18 08:13:47;;;;;;;2.60;2.40;;;22.40;61.80;;;;;;5004466;28;20454;-77
2023/01/18 08:16:14;;;;;;;3.93;2.67;;;22.40;62.10;;;;;;5007941;28;20786;-76
2023/01/18 08:18:44;;;;;;;2.40;2.20;;;22.50;62.10;;;;;;5010562;28;20851;-76
2023/01/18 08:21:11;;;;;;;2.47;2.27;;;22.50;62.10;;;;;;5005221;28;20227;-76
2023/01/18 08:23:39;;;;;;;3.27;2.87;;;22.50;62.50;;;;;;5004420;28;20921;-77
2023/01/18 08:26:07;;;;;;;2.67;2.00;;;22.40;64.60;;;;;;5007068;28;20910;-80
2023/01/18 08:28:36;;;;;;;3.53;2.20;;;22.40;64.30;;;;;;5005810;28;20204;-78
2023/01/18 08:31:09;;;;;;;2.40;2.20;;;22.40;63.80;;;;;;5007115;28;20895;-77
2023/01/18 08:33:37;;;;;;;4.03;2.20;;;22.30;63.00;;;;;;5007720;28;20283;-76
2023/01/18 08:36:10;;;;;;;3.40;2.60;;;22.40;62.20;;;;;;5008494;28;20474;-78
2023/01/18 08:38:37;;;;;;;3.10;2.80;;;22.40;61.50;;;;;;5006090;28;20474;-77
2023/01/18 08:41:04;;;;;;;3.85;3.10;;;22.30;60.70;;;;;;5005425;28;20942;-75
2023/01/18 08:43:32;;;;;;;2.87;2.67;;;22.20;61.60;;;;;;5006416;28;20642;-77
2023/01/18 08:45:59;;;;;;;5.55;3.05;;;22.20;61.00;;;;;;5003520;28;20470;-76
2023/01/18 08:48:26;;;;;;;3.93;3.57;;;22.30;60.80;;;;;;5008070;28;20199;-77
2023/01/18 08:50:53;;;;;;;3.13;2.87;;;22.30;61.00;;;;;;5007927;28;20456;-77
2023/01/18 08:53:22;;;;;;;2.67;2.43;;;22.30;61.20;;;;;;5004246;28;20956;-77
2023/01/18 08:55:49;;;;;;;3.10;2.43;;;22.30;61.20;;;;;;5005239;28;20458;-76
2023/01/18 08:58:16;;;;;;;2.43;2.23;;;22.30;61.20;;;;;;5007287;28;22214;-76
2023/01/18 09:00:42;;;;;;;3.55;2.78;;;22.30;61.10;;;;;;5005473;28;20776;-76
2023/01/18 09:03:09;;;;;;;4.72;2.80;;;22.30;61.20;;;;;;5007411;28;20208;-78
2023/01/18 09:05:36;;;;;;;2.60;2.40;;;22.30;61.30;;;;;;5007441;28;20209;-79
2023/01/18 09:08:03;;;;;;;4.43;2.93;;;22.30;61.40;;;;;;5004990;28;20490;-78
2023/01/18 09:10:36;;;;;;;4.23;2.60;;;22.30;61.50;;;;;;5006020;28;20455;-76
2023/01/18 09:13:03;;;;;;;6.17;2.70;;;22.20;61.50;;;;;;5007926;28;20490;-75
2023/01/18 09:15:29;;;;;;;2.93;2.20;;;22.20;61.50;;;;;;5009410;28;20493;-76
2023/01/18 09:17:57;;;;;;;3.00;2.43;;;22.20;61.50;;;;;;5009713;28;20466;-76
2023/01/18 09:20:24;;;;;;;3.45;2.83;;;22.20;61.70;;;;;;5010513;28;20513;-76
2023/01/18 09:22:51;;;;;;;2.50;2.30;;;22.20;61.70;;;;;;5009905;28;20662;-75
2023/01/18 09:25:19;;;;;;;3.65;2.80;;;22.20;61.80;;;;;;5010922;28;20459;-77
2023/01/18 09:27:47;;;;;;;2.80;2.60;;;22.20;61.70;;;;;;5007033;28;20204;-77
2023/01/18 09:30:15;;;;;;;2.63;2.43;;;22.20;61.60;;;;;;5009152;28;20466;-76
2023/01/18 09:32:42;;;;;;;4.00;2.80;;;22.20;61.70;;;;;;5008719;28;20513;-76
2023/01/18 09:35:09;;;;;;;2.60;2.40;;;22.20;61.70;;;;;;5010817;28;20575;-77
2023/01/18 09:37:36;;;;;;;2.92;2.10;;;22.20;61.80;;;;;;5009679;28;20578;-76
2023/01/18 09:40:04;;;;;;;2.90;2.60;;;22.20;61.80;;;;;;5009735;28;20287;-78
2023/01/18 09:42:43;;;;;;;3.30;2.53;;;22.20;61.80;;;;;;5005759;28;21061;-82
2023/01/18 09:45:22;;;;;;;3.10;2.40;;;22.20;62.00;;;;;;5004931;28;20727;-79
2023/01/18 09:47:55;;;;;;;2.70;2.50;;;22.50;62.10;;;;;;5008335;28;20455;-81
2023/01/18 09:50:23;;;;;;;2.00;1.80;;;23.10;60.90;;;;;;5008110;28;20598;-82
2023/01/18 09:52:59;;;;;;;3.50;3.20;;;23.60;59.90;;;;;;5008409;28;20482;-84
2023/01/18 09:55:33;;;;;;;2.60;2.40;;;23.80;59.70;;;;;;5005679;28;20678;-84
2023/01/18 09:58:11;;;;;;;3.00;2.80;;;23.90;59.60;;;;;;5006031;28;20471;-81
2023/01/18 10:00:43;;;;;;;2.33;2.13;;;23.80;59.70;;;;;;5006850;28;20558;-82
2023/01/18 10:03:14;;;;;;;3.83;2.10;;;23.70;60.00;;;;;;5004896;28;20973;-80
2023/01/18 10:05:50;;;;;;;2.93;2.57;;;23.60;60.10;;;;;;5009000;28;20945;-82
2023/01/18 10:08:23;;;;;;;3.27;2.17;;;23.70;60.20;;;;;;5009436;28;20451;-76
2023/01/18 10:10:55;;;;;;;15.53;2.47;;;23.60;60.30;;;;;;5009769;28;20459;-79
2023/01/18 10:13:40;;;;;;;5.40;2.90;;;23.10;61.20;;;;;;5008891;28;20502;-78
2023/01/18 10:16:13;;;;;;;5.40;2.47;;;22.70;61.90;;;;;;5010419;28;20915;-82
2023/01/18 10:18:44;;;;;;;9.43;3.07;;;22.50;62.60;;;;;;5012014;28;20848;-87
2023/01/18 10:21:20;;;;;;;3.13;2.70;;;22.40;62.40;;;;;;5013294;28;20451;-85
2023/01/18 10:24:02;;;;;;;4.20;2.50;;;22.30;61.90;;;;;;5010919;28;20845;-76
2023/01/18 10:26:30;;;;;;;3.73;2.43;;;22.30;60.60;;;;;;5009646;28;20900;-75
2023/01/18 10:29:03;;;;;;;2.97;2.55;;;22.20;61.20;;;;;;5007004;28;20989;-76
2023/01/18 10:31:43;;;;;;;11.20;2.40;;;22.20;60.80;;;;;;5007175;28;20267;-77
2023/01/18 10:34:18;;;;;;;3.43;3.13;;;22.20;61.10;;;;;;5010634;28;20505;-78
2023/01/18 10:36:50;;;;;;;4.50;2.80;;;22.10;61.40;;;;;;5010050;28;20479;-79
2023/01/18 10:39:28;;;;;;;3.55;3.00;;;22.10;62.20;;;;;;5006761;28;20562;-78
2023/01/18 10:41:57;;;;;;;3.03;2.83;;;22.00;62.60;;;;;;5007230;28;20200;-77
2023/01/18 10:44:24;;;;;;;3.37;2.80;;;22.00;62.60;;;;;;5008395;28;20476;-76
2023/01/18 10:46:56;;;;;;;4.70;2.85;;;22.10;62.50;;;;;;5007429;28;21075;-76
2023/01/18 10:49:38;;;;;;;3.58;2.72;;;22.10;62.00;;;;;;5007169;28;20196;-75
2023/01/18 10:52:19;;;;;;;3.00;2.70;;;22.00;61.30;;;;;;5005278;28;20227;-77
2023/01/18 10:55:00;;;;;;;4.43;3.03;;;21.80;60.60;;;;;;5006648;28;20926;-77
2023/01/18 10:57:30;;;;;;;4.25;2.90;;;21.70;61.20;;;;;;5008398;28;20519;-77
2023/01/18 10:59:58;;;;;;;4.83;2.60;;;21.70;60.70;;;;;;5008355;28;20224;-76
2023/01/18 11:02:28;;;;;;;3.83;2.93;;;21.60;61.10;;;;;;5007994;28;21004;-75
2023/01/18 11:05:00;;;;;;;2.65;2.45;;;21.60;62.80;;;;;;5008709;28;20945;-77
2023/01/18 11:07:28;;;;;;;2.63;2.42;;;21.70;61.90;;;;;;5007104;28;20675;-77
2023/01/18 11:09:58;;;;;;;2.50;2.30;;;21.90;61.50;;;;;;5006921;28;20211;-77
2023/01/18 11:12:35;;;;;;;4.03;2.83;;;22.00;60.70;;;;;;5006634;28;20564;-76
2023/01/18 11:15:25;;;;;;;3.40;3.00;;;22.20;60.40;;;;;;5008567;28;20977;-75
2023/01/18 11:18:10;;;;;;;3.80;2.80;;;22.30;59.80;;;;;;5007653;28;20212;-76
2023/01/18 11:20:45;;;;;;;3.17;2.93;;;22.50;59.60;;;;;;5009092;28;20491;-75
2023/01/18 11:23:19;;;;;;;3.90;3.13;;;22.60;59.20;;;;;;5007157;28;20548;-75
2023/01/18 11:25:51;;;;;;;4.87;2.93;;;22.70;59.20;;;;;;5007477;28;20266;-76
2023/01/18 11:28:21;;;;;;;3.37;2.70;;;22.80;59.10;;;;;;5008505;28;20811;-75
2023/01/18 11:30:55;;;;;;;2.83;2.60;;;22.80;59.10;;;;;;5007272;28;20456;-76
2023/01/18 11:33:26;;;;;;;3.53;2.67;;;22.70;59.10;;;;;;5006369;28;20496;-76
2023/01/18 11:35:55;;;;;;;3.73;2.50;;;22.70;59.20;;;;;;5008674;28;20835;-76
2023/01/18 11:38:27;;;;;;;3.70;2.50;;;22.60;59.20;;;;;;5007949;28;20465;-76
2023/01/18 11:41:12;;;;;;;3.40;2.53;;;22.60;59.40;;;;;;5007191;28;20465;-77
2023/01/18 11:43:40;;;;;;;2.70;2.50;;;22.50;59.40;;;;;;5006611;28;20464;-78
2023/01/18 11:46:28;;;;;;;3.23;2.70;;;22.40;59.50;;;;;;5007475;28;20209;-77
2023/01/18 11:49:04;;;;;;;2.50;2.30;;;22.40;59.60;;;;;;5007588;28;20989;-77
2023/01/18 11:51:37;;;;;;;3.70;2.50;;;22.30;59.70;;;;;;5007147;28;21052;-77
2023/01/18 11:54:21;;;;;;;2.97;2.70;;;22.20;59.80;;;;;;5006653;28;20862;-80
2023/01/18 11:56:50;;;;;;;4.37;2.53;;;22.20;60.00;;;;;;5006132;28;20982;-77
2023/01/18 11:59:25;;;;;;;3.73;2.67;;;22.30;60.40;;;;;;5006960;28;20514;-77
2023/01/18 12:02:42;;;;;;;2.73;2.53;;;22.30;60.30;;;;;;5007706;28;20556;-81
2023/01/18 12:05:40;;;;;;;4.13;2.80;;;22.30;60.50;;;;;;5010049;28;20447;-83
2023/01/18 12:08:22;;;;;;;2.70;2.37;;;22.20;60.90;;;;;;5006373;28;20462;-83
2023/01/18 12:11:03;;;;;;;2.40;2.20;;;22.10;61.80;;;;;;5004370;28;20467;-85
2023/01/18 12:13:35;;;;;;;3.20;2.88;;;22.00;62.00;;;;;;5006519;28;20227;-85
2023/01/18 12:16:14;;;;;;;2.13;1.93;;;22.30;61.40;;;;;;5007914;28;20728;-85
2023/01/18 12:19:25;;;;;;;2.30;1.95;;;22.60;61.10;;;;;;5008699;28;20440;-86
2023/01/18 12:22:16;;;;;;;2.15;1.85;;;22.70;61.00;;;;;;5006672;28;20199;-86
2023/01/18 12:24:56;;;;;;;3.65;2.20;;;22.80;60.90;;;;;;5005546;28;20219;-84
2023/01/18 12:27:29;;;;;;;2.40;2.20;;;22.90;60.80;;;;;;5006726;28;20199;-83
2023/01/18 12:30:32;;;;;;;4.70;2.00;;;23.00;60.80;;;;;;5007590;28;20574;-84
2023/01/18 12:33:07;;;;;;;2.30;2.08;;;23.00;60.70;;;;;;4986891;28;20542;-84
2023/01/18 12:35:57;;;;;;;2.83;2.53;;;23.10;60.70;;;;;;5007750;28;20215;-84
2023/01/18 12:38:29;;;;;;;2.70;2.50;;;23.10;60.60;;;;;;5006290;28;20463;-84
2023/01/18 12:41:43;;;;;;;2.30;1.90;;;23.30;60.50;;;;;;5006584;28;20219;-86
2023/01/18 12:44:35;;;;;;;2.00;1.80;;;23.30;60.50;;;;;;5004089;28;20479;-86
2023/01/18 12:47:14;;;;;;;3.70;2.10;;;23.40;60.40;;;;;;5007712;28;20459;-86
2023/01/18 12:49:48;;;;;;;2.00;1.80;;;23.40;60.40;;;;;;5007504;28;20802;-86
2023/01/18 12:52:20;;;;;;;3.60;2.73;;;23.40;60.30;;;;;;5006262;28;20471;-86
2023/01/18 12:54:50;;;;;;;2.87;2.13;;;23.50;60.10;;;;;;5006302;28;20460;-86
2023/01/18 12:57:19;;;;;;;2.10;1.90;;;23.50;60.10;;;;;;5006856;28;20455;-85
2023/01/18 12:59:51;;;;;;;2.40;2.10;;;23.50;60.00;;;;;;5006928;28;20486;-86
2023/01/18 13:02:26;;;;;;;2.92;2.10;;;23.50;60.10;;;;;;5005324;28;20551;-81
2023/01/18 13:04:59;;;;;;;2.27;2.00;;;23.50;60.30;;;;;;5007436;28;20203;-87
2023/01/18 13:07:32;;;;;;;2.07;1.87;;;23.40;60.60;;;;;;5006602;28;20454;-85
2023/01/18 13:10:01;;;;;;;1.93;1.73;;;23.40;61.50;;;;;;5007462;28;20527;-85
2023/01/18 13:12:28;;;;;;;1.60;1.50;;;23.30;60.70;;;;;;5007726;28;20486;-84
2023/01/18 13:15:03;;;;;;;2.57;2.13;;;23.30;60.60;;;;;;5008670;28;20828;-84
2023/01/18 13:17:36;;;;;;;2.60;2.10;;;23.40;60.60;;;;;;5006873;28;20522;-83
2023/01/18 13:20:08;;;;;;;2.10;1.90;;;23.40;60.50;;;;;;5005577;28;20461;-84
2023/01/18 13:22:42;;;;;;;1.85;1.70;;;23.40;60.60;;;;;;5005703;28;20451;-85
2023/01/18 13:25:40;;;;;;;2.00;1.70;;;23.40;60.70;;;;;;5007129;28;20203;-87
2023/01/18 13:28:17;;;;;;;2.03;1.87;;;23.40;60.90;;;;;;5007976;28;20463;-82
2023/01/18 13:30:54;;;;;;;2.07;1.87;;;23.40;60.90;;;;;;5008422;28;20812;-84
2023/01/18 13:33:23;;;;;;;2.20;2.00;;;23.40;60.90;;;;;;5007556;28;20590;-82
2023/01/18 13:35:54;;;;;;;2.90;2.03;;;23.40;61.00;;;;;;5011716;28;20554;-82
2023/01/18 13:38:24;;;;;;;2.30;1.87;;;23.40;60.90;;;;;;5011753;28;21069;-82
2023/01/18 13:41:00;;;;;;;2.30;2.10;;;23.30;60.70;;;;;;5010861;28;20489;-87
2023/01/18 13:44:01;;;;;;;1.53;1.43;;;23.30;60.90;;;;;;5011333;28;20457;-81